Time;durP1;ratioP1;P1;durP2;ratioP2;P2;SDS_P1;SDS_P2;PMS_P1;PMS_P2;Temp;Humidity;BMP_temperature;BMP_pressure;BME280_temperature;BME280_humidity;BME280_pressure;Samples;Min_cycle;Max_cycle;Signal;HPM_P1;HPM_P2
2024/01/11 00:01:46;;;;;;;63.80;27.77;;;-3.50;81.70;;;;;;4928396;28;20236;-71
2024/01/11 00:04:11;;;;;;;61.30;26.60;;;-3.50;81.70;;;;;;4932275;29;20188;-70
2024/01/11 00:06:44;;;;;;;60.83;27.17;;;-3.40;81.90;;;;;;4932598;28;20219;-71
2024/01/11 00:09:10;;;;;;;63.67;25.83;;;-3.30;81.80;;;;;;4931997;29;20275;-70
2024/01/11 00:11:35;;;;;;;62.80;27.53;;;-3.20;81.70;;;;;;4925216;28;20295;-71
2024/01/11 00:14:01;;;;;;;58.13;27.50;;;-3.20;81.40;;;;;;4929918;29;20916;-71
2024/01/11 00:16:27;;;;;;;72.50;30.13;;;-3.30;81.20;;;;;;4930797;28;20556;-70
2024/01/11 00:18:52;;;;;;;62.43;28.17;;;-3.40;81.20;;;;;;4930770;28;20192;-71
2024/01/11 00:21:18;;;;;;;64.30;31.10;;;-3.50;81.40;;;;;;4928601;28;20212;-71
2024/01/11 00:23:43;;;;;;;80.07;34.10;;;-3.60;81.70;;;;;;4932614;29;20229;-70
2024/01/11 00:26:12;;;;;;;78.90;31.40;;;-3.60;81.80;;;;;;4931385;28;20188;-71
2024/01/11 00:28:38;;;;;;;73.75;30.35;;;-3.70;81.90;;;;;;4930143;28;20230;-71
2024/01/11 00:31:04;;;;;;;66.87;28.33;;;-3.70;82.20;;;;;;4932784;29;20216;-69
2024/01/11 00:33:30;;;;;;;72.35;31.25;;;-3.60;82.50;;;;;;4930278;29;20185;-70
2024/01/11 00:35:55;;;;;;;69.57;30.60;;;-3.50;82.80;;;;;;4931984;28;20230;-71
2024/01/11 00:38:21;;;;;;;71.03;31.80;;;-3.60;82.50;;;;;;4933957;28;20272;-70
2024/01/11 00:40:46;;;;;;;68.80;30.00;;;-3.60;82.80;;;;;;4926400;28;20227;-70
2024/01/11 00:43:12;;;;;;;68.17;29.47;;;-3.60;82.80;;;;;;4926950;28;20240;-69
2024/01/11 00:45:38;;;;;;;71.87;31.70;;;-3.60;82.80;;;;;;4928484;28;20197;-71
2024/01/11 00:48:04;;;;;;;69.47;28.27;;;-3.60;83.00;;;;;;4921996;29;20307;-70
2024/01/11 00:50:30;;;;;;;75.45;30.63;;;-3.60;83.10;;;;;;4925882;28;20708;-71
2024/01/11 00:52:56;;;;;;;69.53;29.73;;;-3.40;83.10;;;;;;4931272;29;20568;-70
2024/01/11 00:55:21;;;;;;;71.60;28.47;;;-3.50;82.80;;;;;;4935465;28;20194;-70
2024/01/11 00:57:47;;;;;;;62.83;28.33;;;-3.50;82.70;;;;;;4932518;29;20219;-69
2024/01/11 01:00:13;;;;;;;79.60;31.27;;;-3.50;82.80;;;;;;4923333;28;20213;-70
2024/01/11 01:02:40;;;;;;;61.13;27.88;;;-3.50;82.70;;;;;;4923622;28;20315;-69
2024/01/11 01:05:06;;;;;;;65.05;28.90;;;-3.40;82.80;;;;;;4930999;29;20189;-70
2024/01/11 01:07:32;;;;;;;65.55;25.85;;;-3.40;82.80;;;;;;4930471;28;20201;-70
2024/01/11 01:09:57;;;;;;;59.00;24.93;;;-3.30;82.80;;;;;;4925048;29;20910;-70
2024/01/11 01:12:24;;;;;;;72.97;29.63;;;-3.30;82.40;;;;;;4926112;29;20197;-70
2024/01/11 01:14:51;;;;;;;69.68;29.83;;;-3.40;81.80;;;;;;4927985;29;20697;-70
2024/01/11 01:17:16;;;;;;;77.45;32.55;;;-3.60;81.40;;;;;;4927248;28;20177;-71
2024/01/11 01:19:42;;;;;;;69.10;30.03;;;-3.70;81.50;;;;;;4929211;29;20602;-70
2024/01/11 01:22:07;;;;;;;82.30;35.10;;;-3.80;81.90;;;;;;4926564;29;20212;-70
2024/01/11 01:24:33;;;;;;;70.80;29.17;;;-3.80;82.50;;;;;;4938046;28;20219;-69
2024/01/11 01:26:59;;;;;;;71.20;29.57;;;-3.80;82.80;;;;;;4933607;28;20207;-71
2024/01/11 01:29:24;;;;;;;62.93;29.17;;;-3.70;83.10;;;;;;4935044;28;20197;-69
2024/01/11 01:31:51;;;;;;;69.17;26.73;;;-3.60;83.40;;;;;;4929144;29;20689;-70
2024/01/11 01:34:16;;;;;;;77.35;29.10;;;-3.50;83.40;;;;;;4933635;28;20280;-70
2024/01/11 01:36:42;;;;;;;68.83;29.63;;;-3.50;83.00;;;;;;4929010;29;20189;-70
2024/01/11 01:39:08;;;;;;;81.70;31.83;;;-3.60;82.50;;;;;;4932639;28;20280;-71
2024/01/11 01:41:33;;;;;;;79.23;30.63;;;-3.70;82.50;;;;;;4927172;28;20221;-69
2024/01/11 01:43:59;;;;;;;77.23;31.47;;;-3.80;82.80;;;;;;4931923;28;20183;-70
2024/01/11 01:46:25;;;;;;;61.63;27.80;;;-3.70;83.30;;;;;;4932746;29;20665;-70
2024/01/11 01:48:56;;;;;;;70.03;27.05;;;-3.70;83.30;;;;;;4927205;29;20607;-70
2024/01/11 01:51:24;;;;;;;65.50;28.02;;;-3.70;83.40;;;;;;4929736;28;20272;-70
2024/01/11 01:53:52;;;;;;;63.10;28.23;;;-3.70;83.00;;;;;;4936034;28;20189;-70
2024/01/11 01:56:20;;;;;;;62.00;26.38;;;-3.80;83.00;;;;;;4935507;29;20195;-69
2024/01/11 01:58:46;;;;;;;80.22;29.73;;;-3.80;83.00;;;;;;4935161;29;20227;-70
2024/01/11 02:01:12;;;;;;;66.72;29.08;;;-3.80;83.10;;;;;;4932065;28;20720;-70
2024/01/11 02:03:38;;;;;;;72.38;29.80;;;-3.80;83.00;;;;;;4932819;28;20215;-72
2024/01/11 02:06:06;;;;;;;79.13;31.67;;;-3.90;83.00;;;;;;4932037;28;20183;-70
2024/01/11 02:08:32;;;;;;;74.88;28.98;;;-3.90;83.10;;;;;;4930168;28;20188;-70
2024/01/11 02:10:59;;;;;;;74.43;30.60;;;-4.00;83.10;;;;;;4926174;28;20226;-69
2024/01/11 02:13:25;;;;;;;79.05;32.40;;;-3.90;83.60;;;;;;4927861;29;20238;-70
2024/01/11 02:15:51;;;;;;;68.83;30.90;;;-3.90;83.60;;;;;;4930642;29;20185;-70
2024/01/11 02:18:17;;;;;;;83.07;34.63;;;-3.80;83.70;;;;;;4932763;29;20189;-72
2024/01/11 02:20:42;;;;;;;82.07;33.10;;;-3.80;83.80;;;;;;4938371;28;20198;-69
2024/01/11 02:23:16;;;;;;;81.77;32.17;;;-3.90;83.80;;;;;;4930667;29;20224;-71
2024/01/11 02:25:42;;;;;;;84.82;36.17;;;-3.90;84.00;;;;;;4931964;29;20219;-71
2024/01/11 02:28:08;;;;;;;96.27;36.00;;;-4.00;84.00;;;;;;4931760;28;20201;-70
2024/01/11 02:30:34;;;;;;;81.00;32.43;;;-4.00;84.10;;;;;;4929215;28;20689;-70
2024/01/11 02:33:01;;;;;;;70.50;31.60;;;-3.90;84.30;;;;;;4931369;28;20443;-68
2024/01/11 02:35:27;;;;;;;78.82;31.08;;;-3.80;84.30;;;;;;4947151;28;20441;-72
2024/01/11 02:37:53;;;;;;;82.10;31.25;;;-3.80;84.30;;;;;;4929067;29;20219;-69
2024/01/11 02:40:19;;;;;;;76.82;31.88;;;-3.80;84.30;;;;;;4925091;28;20303;-71
2024/01/11 02:42:44;;;;;;;73.67;31.70;;;-3.70;84.30;;;;;;4946154;28;20354;-71
2024/01/11 02:45:12;;;;;;;74.90;31.07;;;-3.80;84.10;;;;;;4932177;28;20181;-71
2024/01/11 02:47:38;;;;;;;80.95;34.95;;;-3.90;84.00;;;;;;4931973;28;20196;-69
2024/01/11 02:50:05;;;;;;;81.72;34.55;;;-4.00;84.10;;;;;;4930099;28;20216;-70
2024/01/11 02:52:30;;;;;;;86.00;35.22;;;-4.10;84.10;;;;;;4929839;28;20961;-70
2024/01/11 02:54:56;;;;;;;87.80;33.10;;;-4.10;84.30;;;;;;4931294;28;20272;-71
2024/01/11 02:57:22;;;;;;;82.33;34.60;;;-4.10;84.40;;;;;;4929341;28;20180;-71
2024/01/11 02:59:47;;;;;;;93.17;35.50;;;-4.10;84.60;;;;;;4929399;28;20192;-70
2024/01/11 03:02:13;;;;;;;84.03;33.87;;;-4.20;84.60;;;;;;4928051;28;20209;-68
2024/01/11 03:04:38;;;;;;;80.33;34.60;;;-4.20;84.60;;;;;;4927816;28;20259;-69
2024/01/11 03:07:04;;;;;;;80.57;36.57;;;-4.20;84.60;;;;;;4935768;28;20191;-70
2024/01/11 03:09:29;;;;;;;72.33;31.40;;;-4.10;84.70;;;;;;4947469;28;20290;-71
2024/01/11 03:11:55;;;;;;;68.67;32.17;;;-4.10;84.90;;;;;;4928211;28;20217;-71
2024/01/11 03:14:21;;;;;;;85.73;34.10;;;-4.00;85.00;;;;;;4929580;29;20185;-69
2024/01/11 03:16:46;;;;;;;89.07;34.70;;;-4.00;84.90;;;;;;4930674;28;20200;-70
2024/01/11 03:19:12;;;;;;;73.93;32.50;;;-4.10;84.70;;;;;;4930365;28;20931;-70
2024/01/11 03:21:43;;;;;;;74.40;31.77;;;-4.20;84.60;;;;;;4940569;28;20215;-70
2024/01/11 03:24:08;;;;;;;76.95;33.17;;;-4.10;84.70;;;;;;4951990;28;20189;-71
2024/01/11 03:26:34;;;;;;;82.20;36.90;;;-4.10;84.70;;;;;;4932689;29;20173;-69
2024/01/11 03:29:00;;;;;;;84.63;34.03;;;-4.10;84.70;;;;;;4926612;28;20193;-69
2024/01/11 03:31:25;;;;;;;78.87;33.60;;;-4.20;84.60;;;;;;4927484;28;20220;-70
2024/01/11 03:33:51;;;;;;;72.67;33.47;;;-4.20;84.60;;;;;;4926052;28;20189;-70
2024/01/11 03:36:16;;;;;;;80.87;35.33;;;-4.30;84.60;;;;;;4930733;28;20349;-71
2024/01/11 03:38:42;;;;;;;89.23;36.53;;;-4.40;84.60;;;;;;4929809;29;20266;-71
2024/01/11 03:41:11;;;;;;;85.60;35.13;;;-4.40;84.70;;;;;;4927963;28;20299;-69
2024/01/11 03:43:37;;;;;;;88.00;35.90;;;-4.40;84.90;;;;;;4927858;29;20605;-73
2024/01/11 03:46:03;;;;;;;89.82;35.95;;;-4.40;84.90;;;;;;4933636;28;20184;-70
2024/01/11 03:48:30;;;;;;;90.63;34.20;;;-4.50;84.90;;;;;;4930160;29;20839;-71
2024/01/11 03:50:55;;;;;;;74.97;31.52;;;-4.50;85.00;;;;;;4927619;28;20733;-70
2024/01/11 03:53:21;;;;;;;77.40;32.70;;;-4.40;85.20;;;;;;4929018;29;20182;-70
2024/01/11 03:55:46;;;;;;;72.87;32.47;;;-4.20;85.20;;;;;;4937947;28;20189;-71
2024/01/11 03:58:12;;;;;;;79.27;32.80;;;-4.20;85.00;;;;;;4925614;28;20195;-71
2024/01/11 04:00:37;;;;;;;77.37;30.07;;;-4.30;84.70;;;;;;4941134;28;20315;-70
2024/01/11 04:03:03;;;;;;;88.77;36.40;;;-4.20;84.70;;;;;;4930254;29;20223;-71
2024/01/11 04:05:29;;;;;;;76.93;31.87;;;-4.30;84.60;;;;;;4933475;29;20303;-70
2024/01/11 04:07:54;;;;;;;87.07;32.30;;;-4.40;84.60;;;;;;4934450;29;20420;-70
2024/01/11 04:10:20;;;;;;;74.63;33.47;;;-4.30;84.40;;;;;;4927385;28;20211;-71
2024/01/11 04:12:46;;;;;;;81.57;32.90;;;-4.40;84.60;;;;;;4928946;29;20200;-70
2024/01/11 04:15:14;;;;;;;77.13;32.67;;;-4.40;84.60;;;;;;4932271;28;20199;-70
2024/01/11 04:17:40;;;;;;;81.78;32.65;;;-4.40;84.70;;;;;;4927476;29;20212;-70
2024/01/11 04:20:08;;;;;;;81.40;33.87;;;-4.50;84.70;;;;;;4921042;28;20620;-71
2024/01/11 04:22:34;;;;;;;77.28;33.25;;;-4.60;84.90;;;;;;4954988;28;20682;-70
2024/01/11 04:25:00;;;;;;;85.95;36.38;;;-4.60;85.00;;;;;;4930372;28;20177;-70
2024/01/11 04:27:26;;;;;;;85.87;34.07;;;-4.60;85.20;;;;;;4930912;28;20189;-72
2024/01/11 04:29:51;;;;;;;91.37;37.10;;;-4.60;85.30;;;;;;4928014;28;20507;-71
2024/01/11 04:32:17;;;;;;;75.60;33.60;;;-4.70;85.30;;;;;;4927873;29;20189;-70
2024/01/11 04:34:43;;;;;;;79.93;33.17;;;-4.60;85.50;;;;;;4928578;29;20177;-70
2024/01/11 04:37:08;;;;;;;84.20;34.37;;;-4.60;85.50;;;;;;4929350;28;20474;-70
2024/01/11 04:39:34;;;;;;;81.43;34.40;;;-4.60;85.60;;;;;;4928643;29;20548;-70
2024/01/11 04:42:00;;;;;;;69.17;29.00;;;-4.60;85.60;;;;;;4928091;28;20222;-70
2024/01/11 04:44:26;;;;;;;75.90;30.67;;;-4.50;85.70;;;;;;4926190;29;20177;-71
2024/01/11 04:46:52;;;;;;;78.70;31.20;;;-4.40;85.70;;;;;;4929024;29;20219;-71
2024/01/11 04:49:17;;;;;;;74.93;30.80;;;-4.40;85.50;;;;;;4927435;29;20280;-70
2024/01/11 04:51:43;;;;;;;68.10;28.23;;;-4.40;85.20;;;;;;4923660;28;20628;-70
2024/01/11 04:54:09;;;;;;;63.50;28.00;;;-4.60;84.70;;;;;;4927314;29;20207;-71
2024/01/11 04:56:34;;;;;;;76.17;29.50;;;-4.60;84.40;;;;;;4924746;28;20177;-71
2024/01/11 04:59:00;;;;;;;67.67;26.97;;;-4.60;84.40;;;;;;4929710;28;20176;-68
2024/01/11 05:01:25;;;;;;;57.70;26.43;;;-4.50;84.10;;;;;;4919599;28;20287;-71
2024/01/11 05:03:51;;;;;;;69.57;28.13;;;-4.50;84.00;;;;;;4932950;28;20278;-69
2024/01/11 05:06:21;;;;;;;85.50;29.17;;;-4.60;83.80;;;;;;4933193;28;20184;-71
2024/01/11 05:08:47;;;;;;;69.68;28.42;;;-4.60;83.80;;;;;;4930815;28;20444;-71
2024/01/11 05:11:17;;;;;;;69.93;29.85;;;-4.60;84.00;;;;;;4927016;28;20209;-69
2024/01/11 05:13:43;;;;;;;77.15;30.25;;;-4.60;84.10;;;;;;4928583;29;20188;-70
2024/01/11 05:16:20;;;;;;;79.30;30.70;;;-4.60;84.40;;;;;;4932726;29;20181;-70
2024/01/11 05:18:45;;;;;;;74.43;32.22;;;-4.70;84.60;;;;;;4933102;29;20188;-73
2024/01/11 05:21:11;;;;;;;74.80;30.17;;;-4.70;84.40;;;;;;4933323;28;20209;-69
2024/01/11 05:23:37;;;;;;;88.25;33.25;;;-4.70;84.70;;;;;;4939369;28;20225;-71
2024/01/11 05:26:03;;;;;;;85.60;33.43;;;-4.70;84.90;;;;;;4934082;28;20244;-70
2024/01/11 05:28:28;;;;;;;77.80;32.30;;;-4.60;85.20;;;;;;4933681;28;20208;-71
2024/01/11 05:30:54;;;;;;;69.00;28.97;;;-4.60;85.30;;;;;;4934606;28;20468;-69
2024/01/11 05:33:20;;;;;;;84.80;33.73;;;-4.60;85.30;;;;;;4936513;28;20185;-69
2024/01/11 05:35:46;;;;;;;85.27;33.10;;;-4.60;85.50;;;;;;4930758;28;20416;-71
2024/01/11 05:38:11;;;;;;;88.33;34.17;;;-4.70;85.50;;;;;;4931770;28;20181;-71
2024/01/11 05:40:37;;;;;;;83.07;32.67;;;-4.70;85.50;;;;;;4928093;28;20215;-71
2024/01/11 05:43:03;;;;;;;84.00;32.83;;;-4.60;85.60;;;;;;4931705;28;20622;-71
2024/01/11 05:45:29;;;;;;;75.15;31.45;;;-4.50;85.70;;;;;;4932226;29;20677;-71
2024/01/11 05:47:54;;;;;;;73.23;30.70;;;-4.40;85.90;;;;;;4925943;29;20284;-71
2024/01/11 05:50:20;;;;;;;81.40;33.17;;;-4.40;85.90;;;;;;4925583;28;20274;-69
2024/01/11 05:52:46;;;;;;;76.83;33.70;;;-4.40;85.70;;;;;;4931361;29;20338;-69
2024/01/11 05:55:12;;;;;;;87.90;35.07;;;-4.60;85.60;;;;;;4932306;28;20424;-70
2024/01/11 05:57:37;;;;;;;79.53;33.40;;;-4.60;85.50;;;;;;4926051;29;20233;-68
2024/01/11 06:00:04;;;;;;;91.67;34.63;;;-4.70;85.50;;;;;;4930916;28;20385;-70
2024/01/11 06:02:31;;;;;;;99.25;38.20;;;-4.70;85.50;;;;;;4931918;28;20212;-70
2024/01/11 06:04:57;;;;;;;77.88;34.47;;;-4.80;85.50;;;;;;4930910;29;20185;-67
2024/01/11 06:07:23;;;;;;;86.00;34.07;;;-4.80;85.60;;;;;;4931018;29;20494;-70
2024/01/11 06:09:49;;;;;;;90.68;36.55;;;-4.80;85.70;;;;;;4928805;28;20195;-70
2024/01/11 06:12:15;;;;;;;82.40;31.40;;;-4.80;85.90;;;;;;4924232;28;20232;-69
2024/01/11 06:14:40;;;;;;;88.25;35.15;;;-4.80;85.90;;;;;;4932354;28;20200;-71
2024/01/11 06:17:06;;;;;;;80.20;35.03;;;-4.70;85.90;;;;;;4934695;28;20191;-70
2024/01/11 06:19:32;;;;;;;86.73;34.27;;;-4.70;85.90;;;;;;4936025;29;20191;-70
2024/01/11 06:21:58;;;;;;;97.43;37.25;;;-4.60;86.20;;;;;;4945940;28;20297;-68
2024/01/11 06:24:23;;;;;;;93.77;38.17;;;-4.70;86.20;;;;;;4941479;28;20192;-69
2024/01/11 06:26:49;;;;;;;91.90;36.37;;;-4.70;85.90;;;;;;4937117;28;20254;-70
2024/01/11 06:29:15;;;;;;;90.67;37.30;;;-4.80;85.90;;;;;;4933189;28;20230;-70
2024/01/11 06:31:41;;;;;;;97.23;37.17;;;-4.80;86.00;;;;;;4932266;28;20232;-68
2024/01/11 06:34:06;;;;;;;84.80;36.03;;;-4.80;86.00;;;;;;4934335;29;20185;-69
2024/01/11 06:36:32;;;;;;;87.30;35.80;;;-4.80;86.00;;;;;;4930745;28;20439;-69
2024/01/11 06:38:57;;;;;;;86.00;36.10;;;-4.80;86.00;;;;;;4934858;29;20207;-71
2024/01/11 06:41:23;;;;;;;76.53;34.43;;;-4.80;86.20;;;;;;4924519;28;20208;-70
2024/01/11 06:43:49;;;;;;;84.53;34.20;;;-4.70;86.20;;;;;;4935298;28;20223;-71
2024/01/11 06:46:21;;;;;;;80.10;33.17;;;-4.70;86.30;;;;;;4933700;28;20196;-72
2024/01/11 06:48:46;;;;;;;78.68;33.88;;;-4.50;86.30;;;;;;4933621;29;20309;-70
2024/01/11 06:51:15;;;;;;;70.00;31.60;;;-4.40;86.30;;;;;;4930238;28;20213;-71
2024/01/11 06:53:41;;;;;;;78.20;33.47;;;-4.40;86.20;;;;;;4933752;29;20815;-71
2024/01/11 06:56:18;;;;;;;86.72;34.40;;;-4.50;86.00;;;;;;4932293;29;20254;-67
2024/01/11 06:58:44;;;;;;;77.55;34.13;;;-4.50;85.90;;;;;;4937258;29;20258;-69
2024/01/11 07:01:10;;;;;;;88.90;34.25;;;-4.40;85.90;;;;;;4929894;28;20282;-69
2024/01/11 07:03:36;;;;;;;76.07;35.20;;;-4.30;86.00;;;;;;4930383;29;20241;-70
2024/01/11 07:06:02;;;;;;;88.60;34.90;;;-4.30;86.00;;;;;;4930320;28;20445;-70
2024/01/11 07:08:28;;;;;;;86.00;33.97;;;-4.30;85.90;;;;;;4931783;29;20975;-72
2024/01/11 07:10:54;;;;;;;85.40;34.67;;;-4.40;85.70;;;;;;4926776;28;20204;-71
2024/01/11 07:13:19;;;;;;;67.60;31.00;;;-4.40;85.60;;;;;;4927686;29;20192;-70
2024/01/11 07:15:45;;;;;;;86.27;35.67;;;-4.40;85.60;;;;;;4929391;28;20177;-68
2024/01/11 07:18:11;;;;;;;87.40;34.20;;;-4.30;85.60;;;;;;4925594;29;20177;-71
2024/01/11 07:20:37;;;;;;;89.93;38.38;;;-4.30;85.50;;;;;;4927809;28;20491;-71
2024/01/11 07:23:02;;;;;;;86.90;36.27;;;-4.40;85.30;;;;;;4924948;29;20239;-71
2024/01/11 07:25:28;;;;;;;77.57;33.80;;;-4.60;85.00;;;;;;4927770;29;20192;-70
2024/01/11 07:27:54;;;;;;;84.57;35.40;;;-4.70;85.00;;;;;;4928849;29;20216;-70
2024/01/11 07:30:19;;;;;;;94.73;36.63;;;-4.70;85.20;;;;;;4927272;28;20212;-71
2024/01/11 07:32:45;;;;;;;73.90;33.13;;;-4.70;85.20;;;;;;4927837;28;20215;-71
2024/01/11 07:35:12;;;;;;;61.07;29.93;;;-4.60;85.50;;;;;;4929233;28;20189;-71
2024/01/11 07:37:38;;;;;;;76.28;32.75;;;-4.50;85.50;;;;;;4923283;29;20577;-69
2024/01/11 07:40:09;;;;;;;80.07;32.50;;;-4.40;85.50;;;;;;4929242;28;20398;-70
2024/01/11 07:42:35;;;;;;;83.32;33.42;;;-4.40;85.20;;;;;;4934432;29;20216;-72
2024/01/11 07:45:01;;;;;;;79.93;33.33;;;-4.40;85.20;;;;;;4931728;28;20188;-72
2024/01/11 07:47:28;;;;;;;80.07;32.63;;;-4.40;85.00;;;;;;4929271;28;20478;-72
2024/01/11 07:49:55;;;;;;;78.07;32.70;;;-4.50;84.90;;;;;;4934703;28;20637;-70
2024/01/11 07:52:21;;;;;;;85.20;32.70;;;-4.50;84.70;;;;;;4928015;28;20193;-71
2024/01/11 07:54:46;;;;;;;68.78;31.63;;;-4.50;84.60;;;;;;4931925;28;20508;-71
2024/01/11 07:57:12;;;;;;;77.43;32.67;;;-4.40;84.70;;;;;;4932530;28;20205;-69
2024/01/11 07:59:38;;;;;;;82.90;32.90;;;-4.20;84.70;;;;;;4937023;28;20212;-69
2024/01/11 08:02:03;;;;;;;75.43;32.90;;;-4.10;84.70;;;;;;4927579;28;20256;-71
2024/01/11 08:04:29;;;;;;;77.00;32.87;;;-4.00;84.70;;;;;;4934223;29;20207;-71
2024/01/11 08:06:55;;;;;;;76.90;32.00;;;-4.10;84.60;;;;;;4933073;29;20196;-71
2024/01/11 08:09:22;;;;;;;92.40;36.22;;;-4.00;84.60;;;;;;4937177;28;20207;-70
2024/01/11 08:11:48;;;;;;;90.05;35.67;;;-3.90;84.40;;;;;;4930773;28;20212;-70
2024/01/11 08:14:14;;;;;;;83.47;31.47;;;-4.00;84.40;;;;;;4925966;29;20189;-74
2024/01/11 08:16:40;;;;;;;87.67;35.33;;;-4.00;84.30;;;;;;4938119;28;20239;-70
2024/01/11 08:19:06;;;;;;;76.25;34.38;;;-4.10;84.10;;;;;;4935071;29;20428;-69
2024/01/11 08:21:32;;;;;;;73.40;32.97;;;-4.00;84.00;;;;;;4929097;28;20212;-72
2024/01/11 08:23:57;;;;;;;74.03;31.73;;;-4.00;84.00;;;;;;4932542;28;20633;-70
2024/01/11 08:26:30;;;;;;;83.93;34.70;;;-3.90;83.70;;;;;;4933061;28;20283;-71
2024/01/11 08:28:56;;;;;;;79.63;34.05;;;-3.90;83.60;;;;;;4934570;29;20457;-69
2024/01/11 08:31:22;;;;;;;75.50;32.93;;;-3.90;83.60;;;;;;4927590;28;20200;-70
2024/01/11 08:33:48;;;;;;;76.55;32.83;;;-3.90;83.40;;;;;;4931877;28;20234;-71
2024/01/11 08:36:14;;;;;;;81.37;32.97;;;-3.80;83.60;;;;;;4939863;28;20177;-71
2024/01/11 08:38:40;;;;;;;66.50;30.17;;;-3.70;83.60;;;;;;4933001;28;20196;-70
2024/01/11 08:41:06;;;;;;;74.88;31.58;;;-3.60;83.40;;;;;;4936886;28;20720;-69
2024/01/11 08:43:32;;;;;;;74.22;32.35;;;-3.60;83.30;;;;;;4930513;29;20235;-70
2024/01/11 08:45:58;;;;;;;71.13;33.17;;;-3.50;83.30;;;;;;4944189;28;20192;-71
2024/01/11 08:48:23;;;;;;;77.27;33.80;;;-3.50;83.10;;;;;;4930785;28;20188;-71
2024/01/11 08:50:49;;;;;;;78.20;32.50;;;-3.40;83.00;;;;;;4937114;28;20212;-70
2024/01/11 08:53:15;;;;;;;78.60;33.37;;;-3.40;82.80;;;;;;4931007;28;20667;-68
2024/01/11 08:55:43;;;;;;;71.18;31.50;;;-3.40;82.50;;;;;;4930505;29;20209;-71
2024/01/11 08:58:10;;;;;;;80.97;33.53;;;-3.40;82.40;;;;;;4930743;28;20227;-70
2024/01/11 09:00:36;;;;;;;89.28;32.13;;;-3.40;82.20;;;;;;4928830;28;20205;-71
2024/01/11 09:03:04;;;;;;;77.88;33.38;;;-3.50;82.10;;;;;;4931417;29;20232;-71
2024/01/11 09:05:30;;;;;;;77.35;32.92;;;-3.40;82.10;;;;;;4933194;29;20185;-70
2024/01/11 09:07:57;;;;;;;76.82;33.60;;;-3.30;82.10;;;;;;4948324;28;20190;-69
2024/01/11 09:10:22;;;;;;;78.47;32.10;;;-3.30;82.10;;;;;;4957065;28;20215;-71
2024/01/11 09:12:48;;;;;;;73.10;32.43;;;-3.20;81.90;;;;;;4956485;28;20189;-71
2024/01/11 09:15:14;;;;;;;79.77;34.23;;;-3.20;81.90;;;;;;4924451;29;20192;-70
2024/01/11 09:17:40;;;;;;;73.30;31.17;;;-3.10;81.90;;;;;;4966357;28;20182;-69
2024/01/11 09:20:06;;;;;;;74.93;33.30;;;-3.00;81.80;;;;;;4928277;28;20221;-70
2024/01/11 09:22:34;;;;;;;82.45;34.40;;;-2.90;81.70;;;;;;4935516;28;20609;-70
2024/01/11 09:25:00;;;;;;;84.45;32.80;;;-2.90;81.50;;;;;;4938655;28;20271;-71
2024/01/11 09:27:25;;;;;;;66.47;31.00;;;-2.90;81.20;;;;;;4933604;28;20216;-70
2024/01/11 09:29:51;;;;;;;85.97;33.83;;;-2.80;81.20;;;;;;4928822;28;20228;-68
2024/01/11 09:32:17;;;;;;;77.25;32.75;;;-2.70;80.90;;;;;;4940724;28;20189;-69
2024/01/11 09:34:45;;;;;;;87.87;36.03;;;-2.70;80.60;;;;;;4930383;28;20184;-70
2024/01/11 09:37:10;;;;;;;79.18;34.35;;;-2.70;80.30;;;;;;4931938;29;20244;-71
2024/01/11 09:39:36;;;;;;;76.83;33.60;;;-2.70;79.90;;;;;;4933450;29;20243;-70
2024/01/11 09:42:08;;;;;;;73.93;32.70;;;-2.70;79.90;;;;;;4929755;28;20262;-70
2024/01/11 09:44:34;;;;;;;76.18;33.85;;;-2.70;79.60;;;;;;4928588;29;20177;-70
2024/01/11 09:47:01;;;;;;;88.23;37.13;;;-2.90;79.30;;;;;;4933670;29;20239;-69
2024/01/11 09:49:29;;;;;;;89.07;36.28;;;-3.10;79.50;;;;;;4929857;29;20184;-71
2024/01/11 09:51:56;;;;;;;83.97;34.13;;;-3.30;79.90;;;;;;4930810;28;20287;-72
2024/01/11 09:54:24;;;;;;;86.15;35.22;;;-3.20;80.50;;;;;;4933432;29;20193;-71
2024/01/11 09:56:53;;;;;;;78.65;33.78;;;-3.20;80.80;;;;;;4932194;29;20189;-70
2024/01/11 09:59:23;;;;;;;85.65;39.15;;;-3.10;80.60;;;;;;4932525;28;20707;-69
2024/01/11 10:01:49;;;;;;;82.75;36.22;;;-3.20;80.30;;;;;;4919998;28;20224;-70
2024/01/11 10:04:16;;;;;;;90.03;35.80;;;-3.20;80.50;;;;;;4931114;29;20192;-70
2024/01/11 10:06:42;;;;;;;86.65;37.25;;;-3.10;80.80;;;;;;4932609;29;20413;-69
2024/01/11 10:09:09;;;;;;;85.47;33.80;;;-2.90;80.90;;;;;;4945370;28;20200;-69
2024/01/11 10:11:34;;;;;;;89.45;37.60;;;-2.90;80.80;;;;;;4930634;28;20219;-69
2024/01/11 10:14:01;;;;;;;78.67;33.20;;;-2.70;80.30;;;;;;4932620;28;20193;-71
2024/01/11 10:16:28;;;;;;;86.95;35.95;;;-2.60;80.00;;;;;;4932280;28;20490;-71
2024/01/11 10:18:55;;;;;;;86.88;34.67;;;-2.50;79.70;;;;;;4933103;28;20653;-72
2024/01/11 10:21:21;;;;;;;77.00;34.58;;;-2.50;79.30;;;;;;4933212;28;20294;-70
2024/01/11 10:23:47;;;;;;;82.93;35.72;;;-2.50;78.90;;;;;;4939558;28;20718;-71
2024/01/11 10:26:16;;;;;;;81.00;35.87;;;-2.50;78.90;;;;;;4936353;28;20188;-71
2024/01/11 10:28:47;;;;;;;68.57;32.05;;;-2.40;78.90;;;;;;4943678;28;20577;-71
2024/01/11 10:31:16;;;;;;;73.75;32.58;;;-2.30;78.70;;;;;;4933525;28;20232;-72
2024/01/11 10:33:43;;;;;;;83.85;34.75;;;-2.30;78.10;;;;;;4951231;28;20181;-69
2024/01/11 10:36:09;;;;;;;68.15;31.60;;;-2.20;77.80;;;;;;4931396;28;20647;-68
2024/01/11 10:38:38;;;;;;;67.65;31.63;;;-2.00;77.80;;;;;;4958465;28;20257;-70
2024/01/11 10:41:07;;;;;;;81.80;34.50;;;-1.70;78.30;;;;;;4929832;28;20205;-68
2024/01/11 10:43:36;;;;;;;74.82;33.90;;;-1.30;78.90;;;;;;4945630;28;20565;-71
2024/01/11 10:46:06;;;;;;;74.20;35.20;;;-0.80;79.20;;;;;;4931657;29;20185;-69
2024/01/11 10:48:38;;;;;;;78.78;35.53;;;-0.30;78.40;;;;;;4931879;29;20272;-69
2024/01/11 10:51:08;;;;;;;70.05;34.50;;;-0.10;77.30;;;;;;4925022;28;20212;-70
2024/01/11 10:53:54;;;;;;;80.20;33.72;;;0.00;75.40;;;;;;4928815;28;20630;-69
2024/01/11 10:56:21;;;;;;;67.57;32.28;;;0.10;74.00;;;;;;4930643;29;20197;-70
2024/01/11 10:58:47;;;;;;;72.68;34.10;;;0.30;73.70;;;;;;4930937;29;20189;-68
2024/01/11 11:01:13;;;;;;;78.55;36.95;;;0.20;72.30;;;;;;4927177;28;20204;-71
2024/01/11 11:03:42;;;;;;;79.35;36.92;;;0.10;72.30;;;;;;4929822;28;20215;-70
2024/01/11 11:06:09;;;;;;;75.82;34.85;;;0.00;71.80;;;;;;4931917;29;20181;-68
2024/01/11 11:08:36;;;;;;;74.63;34.15;;;-0.30;71.40;;;;;;4940466;28;20184;-71
2024/01/11 11:11:05;;;;;;;79.40;34.15;;;-0.20;71.70;;;;;;4934086;28;20200;-69
2024/01/11 11:13:32;;;;;;;69.15;33.95;;;0.10;71.80;;;;;;4935734;28;20196;-69
2024/01/11 11:15:58;;;;;;;73.07;33.20;;;-0.30;70.80;;;;;;4937154;28;20539;-69
2024/01/11 11:18:25;;;;;;;75.50;33.73;;;-0.50;71.40;;;;;;4931308;28;20272;-70
2024/01/11 11:20:51;;;;;;;71.15;32.40;;;-0.40;71.80;;;;;;4935702;28;20448;-68
2024/01/11 11:23:18;;;;;;;72.43;33.40;;;-0.40;72.10;;;;;;4934447;28;20216;-70
2024/01/11 11:25:49;;;;;;;71.13;31.50;;;-0.60;72.00;;;;;;4953283;28;20186;-71
2024/01/11 11:28:16;;;;;;;77.43;35.63;;;-0.40;72.30;;;;;;4935849;28;20205;-69
2024/01/11 11:30:44;;;;;;;71.20;33.90;;;-0.90;72.10;;;;;;4934061;28;20205;-70
2024/01/11 11:33:23;;;;;;;82.65;35.00;;;-0.90;72.90;;;;;;4939973;28;20185;-70
2024/01/11 11:35:53;;;;;;;77.53;34.25;;;-1.00;73.30;;;;;;4932107;29;20258;-71
2024/01/11 11:38:23;;;;;;;76.07;34.78;;;-0.90;73.50;;;;;;4947077;28;20180;-68
2024/01/11 11:40:52;;;;;;;78.38;35.60;;;-0.80;73.60;;;;;;4935584;28;20213;-68
2024/01/11 11:43:19;;;;;;;74.70;33.20;;;-0.80;73.60;;;;;;4943843;28;20223;-71
2024/01/11 11:45:47;;;;;;;77.35;34.53;;;-0.80;73.30;;;;;;4931777;28;20602;-70
2024/01/11 11:48:31;;;;;;;75.22;36.10;;;-0.70;73.70;;;;;;4932625;28;20278;-68
2024/01/11 11:51:13;;;;;;;80.38;35.90;;;-0.70;73.30;;;;;;4927231;28;20302;-70
2024/01/11 11:53:40;;;;;;;74.97;33.67;;;-0.60;73.30;;;;;;4930651;29;20193;-68
2024/01/11 11:56:09;;;;;;;81.25;36.88;;;-0.60;73.20;;;;;;4932143;28;20661;-71
2024/01/11 11:58:35;;;;;;;75.85;33.78;;;-0.60;73.30;;;;;;4931485;29;20239;-69
2024/01/11 12:01:02;;;;;;;71.43;31.43;;;-0.70;72.90;;;;;;4925021;28;20212;-69
2024/01/11 12:03:37;;;;;;;76.60;35.03;;;-0.60;73.20;;;;;;4939360;28;20533;-70
2024/01/11 12:06:03;;;;;;;70.75;33.05;;;-0.40;73.20;;;;;;4929746;29;20253;-70
2024/01/11 12:08:29;;;;;;;78.75;33.63;;;-0.40;72.90;;;;;;4930349;28;20616;-68
2024/01/11 12:10:55;;;;;;;73.67;36.17;;;-0.20;72.70;;;;;;4923640;28;20216;-70
2024/01/11 12:13:23;;;;;;;80.27;35.00;;;-0.20;72.40;;;;;;4931196;28;20219;-70
2024/01/11 12:15:49;;;;;;;70.38;33.78;;;-0.20;72.10;;;;;;4922259;28;20650;-70
2024/01/11 12:18:15;;;;;;;73.72;33.97;;;-0.20;72.00;;;;;;4931476;28;20189;-68
2024/01/11 12:20:41;;;;;;;73.57;35.60;;;-0.20;72.10;;;;;;4926285;28;20240;-70
2024/01/11 12:23:09;;;;;;;74.90;33.60;;;-0.30;72.00;;;;;;4934193;28;20212;-70
2024/01/11 12:25:38;;;;;;;80.45;33.67;;;-0.20;72.10;;;;;;4936180;28;20216;-71